sensor_id;sensor_type;location;lat;lon;timestamp;P1;durP1;ratioP1;P2;durP2;ratioP2
20445;SDS011;10382;49.140;9.234;2022-11-15T00:01:17;3.60;;;3.30;;
20445;SDS011;10382;49.140;9.234;2022-11-15T00:03:44;7.97;;;4.07;;
20445;SDS011;10382;49.140;9.234;2022-11-15T00:06:11;8.10;;;3.33;;
20445;SDS011;10382;49.140;9.234;2022-11-15T00:08:38;6.83;;;4.37;;
20445;SDS011;10382;49.140;9.234;2022-11-15T00:11:05;5.07;;;2.87;;
20445;SDS011;10382;49.140;9.234;2022-11-15T00:13:32;7.27;;;3.80;;
20445;SDS011;10382;49.140;9.234;2022-11-15T00:16:00;6.03;;;3.60;;
20445;SDS011;10382;49.140;9.234;2022-11-15T00:18:28;9.03;;;2.20;;
20445;SDS011;10382;49.140;9.234;2022-11-15T00:21:02;4.27;;;3.40;;
20445;SDS011;10382;49.140;9.234;2022-11-15T00:23:31;11.20;;;2.83;;
20445;SDS011;10382;49.140;9.234;2022-11-15T00:25:58;3.90;;;3.20;;
20445;SDS011;10382;49.140;9.234;2022-11-15T00:28:25;6.40;;;4.10;;
20445;SDS011;10382;49.140;9.234;2022-11-15T00:30:52;4.27;;;3.30;;
20445;SDS011;10382;49.140;9.234;2022-11-15T00:33:21;4.47;;;3.00;;
20445;SDS011;10382;49.140;9.234;2022-11-15T00:35:47;12.63;;;3.37;;
20445;SDS011;10382;49.140;9.234;2022-11-15T00:38:14;4.70;;;3.00;;
20445;SDS011;10382;49.140;9.234;2022-11-15T00:40:41;6.53;;;4.27;;
20445;SDS011;10382;49.140;9.234;2022-11-15T00:43:08;3.03;;;2.47;;
20445;SDS011;10382;49.140;9.234;2022-11-15T00:45:35;5.90;;;3.67;;
20445;SDS011;10382;49.140;9.234;2022-11-15T00:48:02;7.93;;;2.60;;
20445;SDS011;10382;49.140;9.234;2022-11-15T00:50:30;9.10;;;3.17;;
20445;SDS011;10382;49.140;9.234;2022-11-15T00:52:57;3.90;;;3.40;;
20445;SDS011;10382;49.140;9.234;2022-11-15T00:55:24;4.83;;;3.23;;
20445;SDS011;10382;49.140;9.234;2022-11-15T00:57:50;9.07;;;4.23;;
20445;SDS011;10382;49.140;9.234;2022-11-15T01:00:17;5.70;;;3.77;;
20445;SDS011;10382;49.140;9.234;2022-11-15T01:02:44;6.07;;;3.57;;
20445;SDS011;10382;49.140;9.234;2022-11-15T01:05:11;4.53;;;3.23;;
20445;SDS011;10382;49.140;9.234;2022-11-15T01:07:40;8.27;;;4.00;;
20445;SDS011;10382;49.140;9.234;2022-11-15T01:10:07;4.97;;;3.57;;
20445;SDS011;10382;49.140;9.234;2022-11-15T01:12:35;7.27;;;2.87;;
20445;SDS011;10382;49.140;9.234;2022-11-15T01:15:02;6.73;;;2.63;;
20445;SDS011;10382;49.140;9.234;2022-11-15T01:17:29;4.50;;;3.90;;
20445;SDS011;10382;49.140;9.234;2022-11-15T01:19:57;4.80;;;3.30;;
20445;SDS011;10382;49.140;9.234;2022-11-15T01:22:24;3.80;;;3.03;;
20445;SDS011;10382;49.140;9.234;2022-11-15T01:24:52;4.97;;;3.00;;
20445;SDS011;10382;49.140;9.234;2022-11-15T01:27:19;3.33;;;2.70;;
20445;SDS011;10382;49.140;9.234;2022-11-15T01:29:45;8.50;;;3.83;;
20445;SDS011;10382;49.140;9.234;2022-11-15T01:32:12;4.80;;;3.63;;
20445;SDS011;10382;49.140;9.234;2022-11-15T01:34:39;4.40;;;4.00;;
20445;SDS011;10382;49.140;9.234;2022-11-15T01:37:06;7.33;;;4.07;;
20445;SDS011;10382;49.140;9.234;2022-11-15T01:39:33;3.73;;;3.23;;
20445;SDS011;10382;49.140;9.234;2022-11-15T01:42:01;8.47;;;4.27;;
20445;SDS011;10382;49.140;9.234;2022-11-15T01:44:36;6.57;;;4.10;;
20445;SDS011;10382;49.140;9.234;2022-11-15T01:47:06;4.33;;;3.57;;
20445;SDS011;10382;49.140;9.234;2022-11-15T01:49:38;7.93;;;4.20;;
20445;SDS011;10382;49.140;9.234;2022-11-15T01:52:08;13.30;;;3.40;;
20445;SDS011;10382;49.140;9.234;2022-11-15T01:54:38;3.13;;;2.83;;
20445;SDS011;10382;49.140;9.234;2022-11-15T01:57:07;7.60;;;3.63;;
20445;SDS011;10382;49.140;9.234;2022-11-15T01:59:36;6.43;;;3.57;;
20445;SDS011;10382;49.140;9.234;2022-11-15T02:02:05;7.70;;;4.33;;
20445;SDS011;10382;49.140;9.234;2022-11-15T02:04:32;4.63;;;3.17;;
20445;SDS011;10382;49.140;9.234;2022-11-15T02:07:03;7.83;;;4.07;;
20445;SDS011;10382;49.140;9.234;2022-11-15T02:09:32;3.53;;;3.00;;
20445;SDS011;10382;49.140;9.234;2022-11-15T02:11:59;5.60;;;4.00;;
20445;SDS011;10382;49.140;9.234;2022-11-15T02:14:27;9.83;;;3.87;;
20445;SDS011;10382;49.140;9.234;2022-11-15T02:16:57;4.40;;;3.10;;
20445;SDS011;10382;49.140;9.234;2022-11-15T02:19:36;20.63;;;9.50;;
20445;SDS011;10382;49.140;9.234;2022-11-15T02:22:22;4.00;;;3.60;;
20445;SDS011;10382;49.140;9.234;2022-11-15T02:25:03;5.40;;;3.23;;
20445;SDS011;10382;49.140;9.234;2022-11-15T02:28:01;6.27;;;3.60;;
20445;SDS011;10382;49.140;9.234;2022-11-15T02:30:44;10.00;;;3.43;;
20445;SDS011;10382;49.140;9.234;2022-11-15T02:33:16;6.40;;;3.83;;
20445;SDS011;10382;49.140;9.234;2022-11-15T02:35:52;10.40;;;3.80;;
20445;SDS011;10382;49.140;9.234;2022-11-15T02:38:27;7.23;;;4.10;;
20445;SDS011;10382;49.140;9.234;2022-11-15T02:41:01;7.73;;;4.33;;
20445;SDS011;10382;49.140;9.234;2022-11-15T02:43:35;5.47;;;3.87;;
20445;SDS011;10382;49.140;9.234;2022-11-15T02:46:30;23.20;;;5.93;;
20445;SDS011;10382;49.140;9.234;2022-11-15T02:49:18;12.60;;;6.30;;
20445;SDS011;10382;49.140;9.234;2022-11-15T02:51:46;11.13;;;6.03;;
20445;SDS011;10382;49.140;9.234;2022-11-15T02:54:15;18.30;;;6.73;;
20445;SDS011;10382;49.140;9.234;2022-11-15T02:56:47;12.13;;;6.00;;
20445;SDS011;10382;49.140;9.234;2022-11-15T02:59:23;13.13;;;5.10;;
20445;SDS011;10382;49.140;9.234;2022-11-15T03:02:14;12.03;;;6.33;;
20445;SDS011;10382;49.140;9.234;2022-11-15T03:04:52;9.73;;;6.00;;
20445;SDS011;10382;49.140;9.234;2022-11-15T03:07:24;6.63;;;4.80;;
20445;SDS011;10382;49.140;9.234;2022-11-15T03:09:56;6.03;;;4.37;;
20445;SDS011;10382;49.140;9.234;2022-11-15T03:12:33;6.03;;;4.90;;
20445;SDS011;10382;49.140;9.234;2022-11-15T03:15:08;7.13;;;5.10;;
20445;SDS011;10382;49.140;9.234;2022-11-15T03:17:42;8.43;;;4.67;;
20445;SDS011;10382;49.140;9.234;2022-11-15T03:20:14;8.80;;;4.03;;
20445;SDS011;10382;49.140;9.234;2022-11-15T03:22:44;6.83;;;4.53;;
20445;SDS011;10382;49.140;9.234;2022-11-15T03:25:13;8.80;;;4.90;;
20445;SDS011;10382;49.140;9.234;2022-11-15T03:27:46;4.07;;;3.30;;
20445;SDS011;10382;49.140;9.234;2022-11-15T03:30:18;7.40;;;5.10;;
20445;SDS011;10382;49.140;9.234;2022-11-15T03:32:49;4.80;;;3.80;;
20445;SDS011;10382;49.140;9.234;2022-11-15T03:35:18;6.63;;;3.80;;
20445;SDS011;10382;49.140;9.234;2022-11-15T03:37:48;12.70;;;6.03;;
20445;SDS011;10382;49.140;9.234;2022-11-15T03:40:21;11.07;;;7.00;;
20445;SDS011;10382;49.140;9.234;2022-11-15T03:42:56;9.73;;;4.70;;
20445;SDS011;10382;49.140;9.234;2022-11-15T03:45:29;10.97;;;6.97;;
20445;SDS011;10382;49.140;9.234;2022-11-15T03:48:05;17.70;;;8.43;;
20445;SDS011;10382;49.140;9.234;2022-11-15T03:50:36;10.37;;;6.20;;
20445;SDS011;10382;49.140;9.234;2022-11-15T03:53:03;13.83;;;7.57;;
20445;SDS011;10382;49.140;9.234;2022-11-15T03:55:31;10.47;;;6.60;;
20445;SDS011;10382;49.140;9.234;2022-11-15T03:57:59;11.53;;;7.23;;
20445;SDS011;10382;49.140;9.234;2022-11-15T04:00:27;8.70;;;5.40;;
20445;SDS011;10382;49.140;9.234;2022-11-15T04:02:54;9.00;;;5.60;;
20445;SDS011;10382;49.140;9.234;2022-11-15T04:05:22;11.73;;;7.60;;
20445;SDS011;10382;49.140;9.234;2022-11-15T04:07:49;9.43;;;5.73;;
20445;SDS011;10382;49.140;9.234;2022-11-15T04:10:16;9.57;;;5.00;;
20445;SDS011;10382;49.140;9.234;2022-11-15T04:12:44;9.20;;;5.43;;
20445;SDS011;10382;49.140;9.234;2022-11-15T04:15:13;7.87;;;5.50;;
20445;SDS011;10382;49.140;9.234;2022-11-15T04:17:41;8.37;;;4.53;;
20445;SDS011;10382;49.140;9.234;2022-11-15T04:20:10;8.00;;;5.30;;
20445;SDS011;10382;49.140;9.234;2022-11-15T04:23:10;20.80;;;9.37;;
20445;SDS011;10382;49.140;9.234;2022-11-15T04:25:57;18.60;;;8.10;;
20445;SDS011;10382;49.140;9.234;2022-11-15T04:28:26;16.40;;;9.60;;
20445;SDS011;10382;49.140;9.234;2022-11-15T04:30:53;14.63;;;7.73;;
20445;SDS011;10382;49.140;9.234;2022-11-15T04:33:21;19.67;;;7.57;;
20445;SDS011;10382;49.140;9.234;2022-11-15T04:35:48;8.03;;;5.00;;
20445;SDS011;10382;49.140;9.234;2022-11-15T04:38:30;8.43;;;6.37;;
20445;SDS011;10382;49.140;9.234;2022-11-15T04:40:57;8.87;;;5.37;;
20445;SDS011;10382;49.140;9.234;2022-11-15T04:43:24;12.03;;;6.20;;
20445;SDS011;10382;49.140;9.234;2022-11-15T04:45:51;10.83;;;5.77;;
20445;SDS011;10382;49.140;9.234;2022-11-15T04:48:18;9.50;;;6.27;;
20445;SDS011;10382;49.140;9.234;2022-11-15T04:50:44;8.40;;;5.47;;
20445;SDS011;10382;49.140;9.234;2022-11-15T04:53:13;20.83;;;6.07;;
20445;SDS011;10382;49.140;9.234;2022-11-15T04:55:45;8.43;;;5.07;;
20445;SDS011;10382;49.140;9.234;2022-11-15T04:58:11;10.30;;;6.03;;
20445;SDS011;10382;49.140;9.234;2022-11-15T05:00:38;12.33;;;6.20;;
20445;SDS011;10382;49.140;9.234;2022-11-15T05:03:05;6.50;;;5.20;;
20445;SDS011;10382;49.140;9.234;2022-11-15T05:05:50;6.47;;;5.03;;
20445;SDS011;10382;49.140;9.234;2022-11-15T05:08:17;6.77;;;5.37;;
20445;SDS011;10382;49.140;9.234;2022-11-15T05:10:45;7.63;;;5.23;;
20445;SDS011;10382;49.140;9.234;2022-11-15T05:13:11;6.90;;;4.97;;
20445;SDS011;10382;49.140;9.234;2022-11-15T05:15:38;9.30;;;5.03;;
20445;SDS011;10382;49.140;9.234;2022-11-15T05:18:05;7.70;;;5.67;;
20445;SDS011;10382;49.140;9.234;2022-11-15T05:20:32;9.43;;;4.87;;
20445;SDS011;10382;49.140;9.234;2022-11-15T05:22:59;9.93;;;6.10;;
20445;SDS011;10382;49.140;9.234;2022-11-15T05:25:26;11.60;;;5.70;;
20445;SDS011;10382;49.140;9.234;2022-11-15T05:27:54;12.43;;;5.07;;
20445;SDS011;10382;49.140;9.234;2022-11-15T05:30:21;6.97;;;4.93;;
20445;SDS011;10382;49.140;9.234;2022-11-15T05:32:48;11.10;;;6.10;;
20445;SDS011;10382;49.140;9.234;2022-11-15T05:35:18;8.00;;;5.07;;
20445;SDS011;10382;49.140;9.234;2022-11-15T05:37:51;10.47;;;5.73;;
20445;SDS011;10382;49.140;9.234;2022-11-15T05:40:18;9.33;;;5.40;;
20445;SDS011;10382;49.140;9.234;2022-11-15T05:42:45;17.03;;;7.37;;
20445;SDS011;10382;49.140;9.234;2022-11-15T05:45:14;16.30;;;8.07;;
20445;SDS011;10382;49.140;9.234;2022-11-15T05:47:41;17.70;;;8.17;;
20445;SDS011;10382;49.140;9.234;2022-11-15T05:50:10;19.50;;;10.27;;
20445;SDS011;10382;49.140;9.234;2022-11-15T05:52:40;20.63;;;10.53;;
20445;SDS011;10382;49.140;9.234;2022-11-15T05:55:08;13.23;;;7.70;;
20445;SDS011;10382;49.140;9.234;2022-11-15T05:57:35;15.33;;;6.33;;
20445;SDS011;10382;49.140;9.234;2022-11-15T06:00:03;11.00;;;7.17;;
20445;SDS011;10382;49.140;9.234;2022-11-15T06:02:32;11.77;;;6.80;;
20445;SDS011;10382;49.140;9.234;2022-11-15T06:04:59;8.30;;;5.70;;
20445;SDS011;10382;49.140;9.234;2022-11-15T06:07:26;14.57;;;7.43;;
20445;SDS011;10382;49.140;9.234;2022-11-15T06:09:54;10.93;;;5.60;;
20445;SDS011;10382;49.140;9.234;2022-11-15T06:12:21;9.77;;;6.87;;
20445;SDS011;10382;49.140;9.234;2022-11-15T06:14:48;9.63;;;6.20;;
20445;SDS011;10382;49.140;9.234;2022-11-15T06:17:15;15.03;;;7.50;;
20445;SDS011;10382;49.140;9.234;2022-11-15T06:19:43;14.20;;;6.20;;
20445;SDS011;10382;49.140;9.234;2022-11-15T06:22:10;9.97;;;5.70;;
20445;SDS011;10382;49.140;9.234;2022-11-15T06:24:37;8.73;;;5.70;;
20445;SDS011;10382;49.140;9.234;2022-11-15T06:27:03;13.83;;;5.67;;
20445;SDS011;10382;49.140;9.234;2022-11-15T06:29:30;17.40;;;5.73;;
20445;SDS011;10382;49.140;9.234;2022-11-15T06:31:57;14.00;;;4.70;;
20445;SDS011;10382;49.140;9.234;2022-11-15T06:34:24;7.80;;;5.73;;
20445;SDS011;10382;49.140;9.234;2022-11-15T06:36:52;8.27;;;6.07;;
20445;SDS011;10382;49.140;9.234;2022-11-15T06:39:19;12.03;;;5.00;;
20445;SDS011;10382;49.140;9.234;2022-11-15T06:41:46;10.83;;;6.73;;
20445;SDS011;10382;49.140;9.234;2022-11-15T06:44:13;18.93;;;5.17;;
20445;SDS011;10382;49.140;9.234;2022-11-15T06:46:39;12.40;;;6.17;;
20445;SDS011;10382;49.140;9.234;2022-11-15T06:49:06;10.03;;;6.10;;
20445;SDS011;10382;49.140;9.234;2022-11-15T06:51:33;13.57;;;7.83;;
20445;SDS011;10382;49.140;9.234;2022-11-15T06:54:01;10.50;;;6.30;;
20445;SDS011;10382;49.140;9.234;2022-11-15T06:56:28;9.27;;;6.17;;
20445;SDS011;10382;49.140;9.234;2022-11-15T06:58:55;13.70;;;6.97;;
20445;SDS011;10382;49.140;9.234;2022-11-15T07:01:22;10.67;;;6.80;;
20445;SDS011;10382;49.140;9.234;2022-11-15T07:03:49;18.87;;;8.53;;
20445;SDS011;10382;49.140;9.234;2022-11-15T07:06:16;13.47;;;7.70;;
20445;SDS011;10382;49.140;9.234;2022-11-15T07:08:43;17.53;;;8.00;;
20445;SDS011;10382;49.140;9.234;2022-11-15T07:11:12;13.37;;;7.23;;
20445;SDS011;10382;49.140;9.234;2022-11-15T07:13:39;19.27;;;7.67;;
20445;SDS011;10382;49.140;9.234;2022-11-15T07:16:07;13.07;;;8.37;;
20445;SDS011;10382;49.140;9.234;2022-11-15T07:18:35;15.43;;;8.33;;
20445;SDS011;10382;49.140;9.234;2022-11-15T07:21:03;23.30;;;8.00;;
20445;SDS011;10382;49.140;9.234;2022-11-15T07:23:31;18.07;;;9.50;;
20445;SDS011;10382;49.140;9.234;2022-11-15T07:25:58;22.10;;;8.57;;
20445;SDS011;10382;49.140;9.234;2022-11-15T07:28:26;20.50;;;8.70;;
20445;SDS011;10382;49.140;9.234;2022-11-15T07:30:53;28.23;;;7.47;;
20445;SDS011;10382;49.140;9.234;2022-11-15T07:33:20;17.70;;;8.33;;
20445;SDS011;10382;49.140;9.234;2022-11-15T07:35:48;13.97;;;8.20;;
20445;SDS011;10382;49.140;9.234;2022-11-15T07:38:15;13.87;;;8.23;;
20445;SDS011;10382;49.140;9.234;2022-11-15T07:40:44;17.20;;;8.90;;
20445;SDS011;10382;49.140;9.234;2022-11-15T07:43:12;21.30;;;8.73;;
20445;SDS011;10382;49.140;9.234;2022-11-15T07:45:41;26.33;;;8.63;;
20445;SDS011;10382;49.140;9.234;2022-11-15T07:48:09;18.93;;;8.30;;
20445;SDS011;10382;49.140;9.234;2022-11-15T07:50:36;21.90;;;8.83;;
20445;SDS011;10382;49.140;9.234;2022-11-15T07:53:03;18.90;;;8.97;;
20445;SDS011;10382;49.140;9.234;2022-11-15T07:55:30;46.60;;;10.70;;
20445;SDS011;10382;49.140;9.234;2022-11-15T07:58:00;27.70;;;8.80;;
20445;SDS011;10382;49.140;9.234;2022-11-15T08:00:27;21.83;;;8.73;;
20445;SDS011;10382;49.140;9.234;2022-11-15T08:03:02;38.57;;;10.40;;
20445;SDS011;10382;49.140;9.234;2022-11-15T08:05:30;25.17;;;10.00;;
20445;SDS011;10382;49.140;9.234;2022-11-15T08:07:57;25.33;;;10.70;;
20445;SDS011;10382;49.140;9.234;2022-11-15T08:10:24;17.53;;;8.53;;
20445;SDS011;10382;49.140;9.234;2022-11-15T08:12:56;31.13;;;9.13;;
20445;SDS011;10382;49.140;9.234;2022-11-15T08:15:24;18.00;;;8.70;;
20445;SDS011;10382;49.140;9.234;2022-11-15T08:17:55;21.43;;;8.93;;
20445;SDS011;10382;49.140;9.234;2022-11-15T08:20:23;17.47;;;8.43;;
20445;SDS011;10382;49.140;9.234;2022-11-15T08:22:51;16.83;;;9.50;;
20445;SDS011;10382;49.140;9.234;2022-11-15T08:25:18;16.60;;;9.40;;
20445;SDS011;10382;49.140;9.234;2022-11-15T08:27:45;18.03;;;9.07;;
20445;SDS011;10382;49.140;9.234;2022-11-15T08:30:12;22.47;;;8.83;;
20445;SDS011;10382;49.140;9.234;2022-11-15T08:32:41;21.10;;;8.73;;
20445;SDS011;10382;49.140;9.234;2022-11-15T08:35:08;21.53;;;9.73;;
20445;SDS011;10382;49.140;9.234;2022-11-15T08:37:36;20.60;;;8.27;;
20445;SDS011;10382;49.140;9.234;2022-11-15T08:40:03;17.27;;;9.10;;
20445;SDS011;10382;49.140;9.234;2022-11-15T08:42:31;19.10;;;7.90;;
20445;SDS011;10382;49.140;9.234;2022-11-15T08:44:58;14.57;;;7.73;;
20445;SDS011;10382;49.140;9.234;2022-11-15T08:47:25;16.70;;;7.20;;
20445;SDS011;10382;49.140;9.234;2022-11-15T08:49:52;12.73;;;6.87;;
20445;SDS011;10382;49.140;9.234;2022-11-15T08:52:19;14.70;;;8.37;;
20445;SDS011;10382;49.140;9.234;2022-11-15T08:54:47;23.53;;;8.83;;
20445;SDS011;10382;49.140;9.234;2022-11-15T08:57:14;21.23;;;9.30;;
20445;SDS011;10382;49.140;9.234;2022-11-15T08:59:41;16.50;;;9.33;;
20445;SDS011;10382;49.140;9.234;2022-11-15T09:02:10;18.27;;;8.83;;
20445;SDS011;10382;49.140;9.234;2022-11-15T09:04:39;22.53;;;8.43;;
20445;SDS011;10382;49.140;9.234;2022-11-15T09:07:07;21.47;;;8.17;;
20445;SDS011;10382;49.140;9.234;2022-11-15T09:09:35;14.30;;;7.70;;
20445;SDS011;10382;49.140;9.234;2022-11-15T09:12:03;18.30;;;8.27;;
20445;SDS011;10382;49.140;9.234;2022-11-15T09:14:31;17.57;;;8.87;;
20445;SDS011;10382;49.140;9.234;2022-11-15T09:16:59;16.50;;;7.87;;
20445;SDS011;10382;49.140;9.234;2022-11-15T09:19:26;12.43;;;6.93;;
20445;SDS011;10382;49.140;9.234;2022-11-15T09:21:53;18.13;;;7.40;;
20445;SDS011;10382;49.140;9.234;2022-11-15T09:24:20;22.23;;;8.40;;
20445;SDS011;10382;49.140;9.234;2022-11-15T09:26:49;12.50;;;7.10;;
20445;SDS011;10382;49.140;9.234;2022-11-15T09:29:17;17.37;;;7.33;;
20445;SDS011;10382;49.140;9.234;2022-11-15T09:31:44;12.40;;;7.20;;
20445;SDS011;10382;49.140;9.234;2022-11-15T09:34:11;17.03;;;7.53;;
20445;SDS011;10382;49.140;9.234;2022-11-15T09:36:38;14.60;;;7.83;;
20445;SDS011;10382;49.140;9.234;2022-11-15T09:39:05;15.37;;;7.90;;
20445;SDS011;10382;49.140;9.234;2022-11-15T09:41:42;23.37;;;7.90;;
20445;SDS011;10382;49.140;9.234;2022-11-15T09:44:22;20.47;;;7.83;;
20445;SDS011;10382;49.140;9.234;2022-11-15T09:47:05;10.67;;;6.77;;
20445;SDS011;10382;49.140;9.234;2022-11-15T09:49:44;13.30;;;7.63;;
20445;SDS011;10382;49.140;9.234;2022-11-15T09:52:12;16.67;;;6.23;;
20445;SDS011;10382;49.140;9.234;2022-11-15T09:54:41;9.40;;;6.07;;
20445;SDS011;10382;49.140;9.234;2022-11-15T09:57:13;17.90;;;8.20;;
20445;SDS011;10382;49.140;9.234;2022-11-15T09:59:51;17.13;;;7.70;;
20445;SDS011;10382;49.140;9.234;2022-11-15T10:02:32;12.77;;;7.63;;
20445;SDS011;10382;49.140;9.234;2022-11-15T10:05:09;19.53;;;7.67;;
20445;SDS011;10382;49.140;9.234;2022-11-15T10:07:40;21.33;;;9.90;;
20445;SDS011;10382;49.140;9.234;2022-11-15T10:10:15;32.03;;;8.60;;
20445;SDS011;10382;49.140;9.234;2022-11-15T10:12:47;24.90;;;7.67;;
20445;SDS011;10382;49.140;9.234;2022-11-15T10:15:18;38.77;;;9.80;;
20445;SDS011;10382;49.140;9.234;2022-11-15T10:20:42;14.33;;;8.70;;
20445;SDS011;10382;49.140;9.234;2022-11-15T10:23:13;14.60;;;7.70;;
20445;SDS011;10382;49.140;9.234;2022-11-15T10:25:42;19.20;;;8.83;;
20445;SDS011;10382;49.140;9.234;2022-11-15T10:28:11;16.20;;;8.53;;
20445;SDS011;10382;49.140;9.234;2022-11-15T10:30:42;19.70;;;9.80;;
20445;SDS011;10382;49.140;9.234;2022-11-15T10:33:21;28.03;;;10.50;;
20445;SDS011;10382;49.140;9.234;2022-11-15T10:38:55;29.10;;;11.87;;
20445;SDS011;10382;49.140;9.234;2022-11-15T10:41:31;35.13;;;11.97;;
20445;SDS011;10382;49.140;9.234;2022-11-15T10:44:21;49.63;;;12.80;;
20445;SDS011;10382;49.140;9.234;2022-11-15T10:47:20;25.60;;;10.77;;
20445;SDS011;10382;49.140;9.234;2022-11-15T10:49:55;25.47;;;9.23;;
20445;SDS011;10382;49.140;9.234;2022-11-15T10:52:27;34.23;;;10.97;;
20445;SDS011;10382;49.140;9.234;2022-11-15T10:54:56;26.93;;;8.10;;
20445;SDS011;10382;49.140;9.234;2022-11-15T10:57:29;20.80;;;9.00;;
20445;SDS011;10382;49.140;9.234;2022-11-15T10:59:59;16.33;;;9.00;;
20445;SDS011;10382;49.140;9.234;2022-11-15T11:02:34;14.60;;;7.90;;
20445;SDS011;10382;49.140;9.234;2022-11-15T11:05:03;18.23;;;7.50;;
20445;SDS011;10382;49.140;9.234;2022-11-15T11:07:31;32.20;;;8.57;;
20445;SDS011;10382;49.140;9.234;2022-11-15T11:10:00;20.93;;;7.37;;
20445;SDS011;10382;49.140;9.234;2022-11-15T11:12:30;29.00;;;8.60;;
20445;SDS011;10382;49.140;9.234;2022-11-15T11:14:59;25.03;;;9.13;;
20445;SDS011;10382;49.140;9.234;2022-11-15T11:17:34;18.30;;;7.70;;
20445;SDS011;10382;49.140;9.234;2022-11-15T11:20:13;29.53;;;8.77;;
20445;SDS011;10382;49.140;9.234;2022-11-15T11:22:52;16.50;;;8.20;;
20445;SDS011;10382;49.140;9.234;2022-11-15T11:25:30;22.50;;;8.40;;
20445;SDS011;10382;49.140;9.234;2022-11-15T11:28:05;19.00;;;10.17;;
20445;SDS011;10382;49.140;9.234;2022-11-15T11:30:47;32.77;;;12.23;;
20445;SDS011;10382;49.140;9.234;2022-11-15T11:33:26;32.37;;;13.80;;
20445;SDS011;10382;49.140;9.234;2022-11-15T11:35:59;22.17;;;10.63;;
20445;SDS011;10382;49.140;9.234;2022-11-15T11:38:37;21.50;;;9.80;;
20445;SDS011;10382;49.140;9.234;2022-11-15T11:41:13;21.33;;;9.50;;
20445;SDS011;10382;49.140;9.234;2022-11-15T11:43:50;17.20;;;9.00;;
20445;SDS011;10382;49.140;9.234;2022-11-15T11:46:29;23.43;;;9.40;;
20445;SDS011;10382;49.140;9.234;2022-11-15T11:49:08;23.30;;;8.30;;
20445;SDS011;10382;49.140;9.234;2022-11-15T11:51:38;25.60;;;7.80;;
20445;SDS011;10382;49.140;9.234;2022-11-15T11:54:10;22.27;;;8.90;;
20445;SDS011;10382;49.140;9.234;2022-11-15T11:56:40;26.70;;;9.30;;
20445;SDS011;10382;49.140;9.234;2022-11-15T11:59:11;15.10;;;9.40;;
20445;SDS011;10382;49.140;9.234;2022-11-15T12:01:44;25.37;;;9.53;;
20445;SDS011;10382;49.140;9.234;2022-11-15T12:04:13;20.57;;;9.77;;
20445;SDS011;10382;49.140;9.234;2022-11-15T12:06:47;31.87;;;11.10;;
20445;SDS011;10382;49.140;9.234;2022-11-15T12:09:20;18.97;;;9.57;;
20445;SDS011;10382;49.140;9.234;2022-11-15T12:11:55;26.07;;;9.10;;
20445;SDS011;10382;49.140;9.234;2022-11-15T12:14:29;27.93;;;8.20;;
20445;SDS011;10382;49.140;9.234;2022-11-15T12:17:00;27.83;;;8.20;;
20445;SDS011;10382;49.140;9.234;2022-11-15T12:19:29;27.90;;;8.77;;
20445;SDS011;10382;49.140;9.234;2022-11-15T12:21:58;28.47;;;9.37;;
20445;SDS011;10382;49.140;9.234;2022-11-15T12:24:29;25.03;;;10.80;;
20445;SDS011;10382;49.140;9.234;2022-11-15T12:27:01;18.27;;;9.77;;
20445;SDS011;10382;49.140;9.234;2022-11-15T12:29:35;26.27;;;11.10;;
20445;SDS011;10382;49.140;9.234;2022-11-15T12:32:05;28.23;;;10.30;;
20445;SDS011;10382;49.140;9.234;2022-11-15T12:35:02;21.53;;;8.90;;
20445;SDS011;10382;49.140;9.234;2022-11-15T12:37:34;15.07;;;9.70;;
20445;SDS011;10382;49.140;9.234;2022-11-15T12:40:36;18.07;;;9.40;;
20445;SDS011;10382;49.140;9.234;2022-11-15T12:46:03;19.37;;;7.77;;
20445;SDS011;10382;49.140;9.234;2022-11-15T12:48:46;17.90;;;7.70;;
20445;SDS011;10382;49.140;9.234;2022-11-15T12:52:03;17.17;;;8.17;;
20445;SDS011;10382;49.140;9.234;2022-11-15T12:54:51;16.23;;;8.23;;
20445;SDS011;10382;49.140;9.234;2022-11-15T12:57:30;14.93;;;8.13;;
20445;SDS011;10382;49.140;9.234;2022-11-15T13:00:05;15.17;;;8.57;;
20445;SDS011;10382;49.140;9.234;2022-11-15T13:03:16;25.03;;;8.50;;
20445;SDS011;10382;49.140;9.234;2022-11-15T13:08:57;19.40;;;8.00;;
20445;SDS011;10382;49.140;9.234;2022-11-15T13:11:44;15.13;;;7.20;;
20445;SDS011;10382;49.140;9.234;2022-11-15T13:14:39;24.13;;;8.30;;
20445;SDS011;10382;49.140;9.234;2022-11-15T13:17:31;17.63;;;8.03;;
20445;SDS011;10382;49.140;9.234;2022-11-15T13:20:02;23.10;;;9.07;;
20445;SDS011;10382;49.140;9.234;2022-11-15T13:22:46;22.67;;;8.47;;
20445;SDS011;10382;49.140;9.234;2022-11-15T13:25:17;17.90;;;9.60;;
20445;SDS011;10382;49.140;9.234;2022-11-15T13:27:55;16.77;;;9.00;;
20445;SDS011;10382;49.140;9.234;2022-11-15T13:30:24;15.77;;;8.67;;
20445;SDS011;10382;49.140;9.234;2022-11-15T13:32:52;13.67;;;8.40;;
20445;SDS011;10382;49.140;9.234;2022-11-15T13:35:21;12.70;;;7.87;;
20445;SDS011;10382;49.140;9.234;2022-11-15T13:37:50;21.00;;;9.10;;
20445;SDS011;10382;49.140;9.234;2022-11-15T13:40:20;15.10;;;8.20;;
20445;SDS011;10382;49.140;9.234;2022-11-15T13:42:52;17.80;;;8.97;;
20445;SDS011;10382;49.140;9.234;2022-11-15T13:45:20;19.53;;;9.00;;
20445;SDS011;10382;49.140;9.234;2022-11-15T13:47:51;17.07;;;8.73;;
20445;SDS011;10382;49.140;9.234;2022-11-15T13:50:20;21.60;;;9.80;;
20445;SDS011;10382;49.140;9.234;2022-11-15T13:52:50;15.20;;;7.77;;
20445;SDS011;10382;49.140;9.234;2022-11-15T13:55:18;25.90;;;9.10;;
20445;SDS011;10382;49.140;9.234;2022-11-15T13:57:48;17.80;;;7.40;;
20445;SDS011;10382;49.140;9.234;2022-11-15T14:00:30;10.37;;;7.50;;
20445;SDS011;10382;49.140;9.234;2022-11-15T14:03:08;17.27;;;7.73;;
20445;SDS011;10382;49.140;9.234;2022-11-15T14:05:42;15.97;;;8.40;;
20445;SDS011;10382;49.140;9.234;2022-11-15T14:08:21;15.63;;;7.33;;
20445;SDS011;10382;49.140;9.234;2022-11-15T14:11:05;14.10;;;8.33;;
20445;SDS011;10382;49.140;9.234;2022-11-15T14:13:34;11.90;;;7.90;;
20445;SDS011;10382;49.140;9.234;2022-11-15T14:16:18;14.63;;;6.87;;
20445;SDS011;10382;49.140;9.234;2022-11-15T14:18:46;18.33;;;7.77;;
20445;SDS011;10382;49.140;9.234;2022-11-15T14:21:15;15.10;;;8.10;;
20445;SDS011;10382;49.140;9.234;2022-11-15T14:23:43;13.23;;;8.13;;
20445;SDS011;10382;49.140;9.234;2022-11-15T14:26:11;18.50;;;7.33;;
20445;SDS011;10382;49.140;9.234;2022-11-15T14:28:54;25.43;;;7.70;;
20445;SDS011;10382;49.140;9.234;2022-11-15T14:31:22;14.43;;;7.97;;
20445;SDS011;10382;49.140;9.234;2022-11-15T14:33:49;37.80;;;13.87;;
20445;SDS011;10382;49.140;9.234;2022-11-15T14:36:17;21.17;;;10.20;;
20445;SDS011;10382;49.140;9.234;2022-11-15T14:38:45;20.43;;;9.43;;
20445;SDS011;10382;49.140;9.234;2022-11-15T14:41:17;17.17;;;8.40;;
20445;SDS011;10382;49.140;9.234;2022-11-15T14:43:46;24.83;;;11.50;;
20445;SDS011;10382;49.140;9.234;2022-11-15T14:46:13;30.53;;;9.50;;
20445;SDS011;10382;49.140;9.234;2022-11-15T14:48:41;19.70;;;9.40;;
20445;SDS011;10382;49.140;9.234;2022-11-15T14:51:10;13.63;;;8.17;;
20445;SDS011;10382;49.140;9.234;2022-11-15T14:53:38;25.00;;;9.97;;
20445;SDS011;10382;49.140;9.234;2022-11-15T14:56:06;20.03;;;9.60;;
20445;SDS011;10382;49.140;9.234;2022-11-15T14:58:32;33.33;;;9.50;;
20445;SDS011;10382;49.140;9.234;2022-11-15T15:00:59;16.87;;;6.53;;
20445;SDS011;10382;49.140;9.234;2022-11-15T15:03:28;15.97;;;5.93;;
20445;SDS011;10382;49.140;9.234;2022-11-15T15:05:56;7.63;;;4.97;;
20445;SDS011;10382;49.140;9.234;2022-11-15T15:08:23;11.57;;;6.23;;
20445;SDS011;10382;49.140;9.234;2022-11-15T15:10:50;13.90;;;7.00;;
20445;SDS011;10382;49.140;9.234;2022-11-15T15:13:17;11.40;;;5.10;;